Strona główna
METAR-TAF:

METAR-TAF

Lotnisko :

Pembrey, Walia

Szerokość geograficzna: 51-43N, Długość geograficzna: 004-22W, wysokość: 3 m

Aktualna obserwacja pogody

Raport powstał 34 minut temu, godzina 19:50 UTC
Wiatr 9 kt od wschodnio-północny wschód
Temperatura 4°C
Wilgotność 75%
Ciśnienie 1015 hPa
Widzialność 10 km lub więcej

METAR: EGOP 271950Z AUTO 07009KT 9999 // FEW180/// 04/00 Q1015

czas: 20:24 (20:24 UTC)


TAF: brakujący

Obserwacja i prognoza pogody dla ponad 4000 lotnisk (raport METAR i TAF).

Dostępne stacje oznaczono żółtymi i czerwonymi punktami na mapie.

Najedź kursorem aby zobaczyć nazwę stacji.

Kliknij aby zobaczyć obserwacje i prognozy pogody.

Aby zmienić mapę: kliknij na zielony przycisk z czarnym krzyżykiem, aby powiększyć; na zielony przycisk z myślnikiem, aby pomniejszyć; na zielone strzałki, aby przejść do map sąsiednich.


METAR-TAF: